Погода Палмитална неделю

Сан-Паулу, Бразилия

24 - 30 апреля
  • 24апреля
    Сегодня
    +22°
    +33°
    Облачно с прояснениями
    ВремяПогодаТемператураВлажностьДавлениеВетер, м/сВероятность осадков
    00:00Облачно с прояснениями+24°C69 %715 мм1.3 м/с5 %
    03:00Практически безоблачно+22°C76 %714 мм1.4 м/с5 %
    06:00Ясно и безоблачно+22°C73 %714 мм1.9 м/с5 %
    09:00Ясно и безоблачно+27°C54 %716 мм0.9 м/с5 %
    12:00Облачно с прояснениями+31°C36 %716 мм2.3 м/с5 %
    15:00Облачно с прояснениями+32°C35 %714 мм2.5 м/с5 %
    18:00Облачно с прояснениями+29°C52 %714 мм2.4 м/с5 %
    21:00Облачно с прояснениями+28°C58 %715 мм0.9 м/с5 %
  • 25апреля
    Четверг
    +20°
    +33°
    Ясно и безоблачно
    ВремяПогодаТемператураВлажностьДавлениеВетер, м/сВероятность осадков
    00:00Облачно с прояснениями+24°C73 %714 мм1.7 м/с5 %
    03:00Ясно и безоблачно+22°C80 %714 мм1.9 м/с5 %
    06:00Ясно и безоблачно+22°C78 %715 мм2.7 м/с5 %
    09:00Ясно и безоблачно+25°C78 %717 мм3.4 м/с5 %
    12:00Ясно и безоблачно+30°C57 %716 мм3.2 м/с2 %
    15:00Ясно и безоблачно+32°C47 %715 мм2.5 м/с3 %
    18:00Облачно с прояснениями+29°C58 %715 мм3.1 м/с4 %
    21:00Облачно с прояснениями+26°C65 %716 мм4.3 м/с2 %
  • 26апреля
    Пятница
    +23°
    +34°
    Ясно и безоблачно
    ВремяПогодаТемператураВлажностьДавлениеВетер, м/сВероятность осадков
    00:00Облачно с прояснениями+23°C80 %715 мм4.4 м/с5 %
    03:00Практически безоблачно+22°C86 %715 мм3.4 м/с5 %
    06:00Ясно и безоблачно+21°C93 %715 мм3.3 м/с5 %
    09:00Ясно и безоблачно+24°C76 %717 мм3.5 м/с5 %
    12:00Ясно и безоблачно+31°C55 %716 мм2.8 м/с5 %
    15:00Ясно и безоблачно+34°C41 %714 мм1.7 м/с5 %
    18:00Ясно и безоблачно+30°C57 %714 мм1.9 м/с5 %
    21:00Ясно и безоблачно+28°C66 %714 мм2.1 м/с5 %
  • 27апреля
    Суббота
    +24°
    +35°
    Практически безоблачно
    ВремяПогодаТемператураВлажностьДавлениеВетер, м/сВероятность осадков
    00:00Ясно и безоблачно+25°C74 %714 мм1.8 м/с5 %
    03:00Ясно и безоблачно+24°C76 %713 мм2.2 м/с5 %
    06:00Ясно и безоблачно+23°C77 %714 мм2.0 м/с5 %
    09:00Ясно и безоблачно+28°C59 %716 мм2.4 м/с5 %
    12:00Ясно и безоблачно+33°C41 %715 мм4.9 м/с4 %
    15:00Практически безоблачно+34°C37 %713 мм3.5 м/с5 %
    18:00Ясно и безоблачно+31°C51 %713 мм2.0 м/с5 %
    21:00Ясно и безоблачно+28°C63 %713 мм1.3 м/с5 %
Мы используем cookies
Соглашаюсь